sensor_id;sensor_type;location;lat;lon;timestamp;P1;durP1;ratioP1;P2;durP2;ratioP2
5630;SDS011;2837;50.990;7.124;2022-08-30T05:01:23;149.40;;;9.70;;
5630;SDS011;2837;50.990;7.124;2022-08-30T05:03:51;150.57;;;10.60;;
5630;SDS011;2837;50.990;7.124;2022-08-30T05:06:18;150.00;;;10.57;;
5630;SDS011;2837;50.990;7.124;2022-08-30T05:08:45;149.07;;;9.60;;
5630;SDS011;2837;50.990;7.124;2022-08-30T05:11:11;149.50;;;9.60;;
5630;SDS011;2837;50.990;7.124;2022-08-30T05:13:37;148.70;;;9.57;;
5630;SDS011;2837;50.990;7.124;2022-08-30T05:16:04;148.60;;;9.60;;
5630;SDS011;2837;50.990;7.124;2022-08-30T05:18:31;149.93;;;9.20;;
5630;SDS011;2837;50.990;7.124;2022-08-30T05:21:07;150.13;;;9.83;;
5630;SDS011;2837;50.990;7.124;2022-08-30T05:23:36;148.37;;;9.40;;
5630;SDS011;2837;50.990;7.124;2022-08-30T05:26:03;150.27;;;9.47;;
5630;SDS011;2837;50.990;7.124;2022-08-30T05:28:33;150.20;;;9.70;;
5630;SDS011;2837;50.990;7.124;2022-08-30T05:31:00;149.70;;;10.40;;
5630;SDS011;2837;50.990;7.124;2022-08-30T05:33:27;149.70;;;9.60;;
5630;SDS011;2837;50.990;7.124;2022-08-30T05:35:53;153.17;;;9.90;;
5630;SDS011;2837;50.990;7.124;2022-08-30T05:38:18;149.07;;;8.73;;
5630;SDS011;2837;50.990;7.124;2022-08-30T05:40:44;150.47;;;9.73;;
5630;SDS011;2837;50.990;7.124;2022-08-30T05:43:10;148.67;;;9.60;;
5630;SDS011;2837;50.990;7.124;2022-08-30T05:45:38;148.50;;;8.97;;
5630;SDS011;2837;50.990;7.124;2022-08-30T05:48:03;149.67;;;9.40;;
5630;SDS011;2837;50.990;7.124;2022-08-30T05:50:29;150.23;;;9.63;;
5630;SDS011;2837;50.990;7.124;2022-08-30T05:52:55;149.87;;;10.30;;
5630;SDS011;2837;50.990;7.124;2022-08-30T05:55:20;154.37;;;10.33;;
5630;SDS011;2837;50.990;7.124;2022-08-30T05:57:46;149.37;;;9.40;;
5630;SDS011;2837;50.990;7.124;2022-08-30T06:00:12;150.10;;;10.30;;
5630;SDS011;2837;50.990;7.124;2022-08-30T06:02:41;149.60;;;10.07;;
5630;SDS011;2837;50.990;7.124;2022-08-30T06:05:07;150.87;;;10.10;;
5630;SDS011;2837;50.990;7.124;2022-08-30T06:07:33;151.07;;;10.13;;
5630;SDS011;2837;50.990;7.124;2022-08-30T06:09:59;149.50;;;9.73;;
5630;SDS011;2837;50.990;7.124;2022-08-30T06:12:25;148.77;;;9.60;;
5630;SDS011;2837;50.990;7.124;2022-08-30T06:14:51;149.60;;;10.07;;
5630;SDS011;2837;50.990;7.124;2022-08-30T06:17:16;153.50;;;8.90;;
5630;SDS011;2837;50.990;7.124;2022-08-30T06:19:42;149.37;;;9.80;;
5630;SDS011;2837;50.990;7.124;2022-08-30T06:22:07;148.07;;;9.00;;
5630;SDS011;2837;50.990;7.124;2022-08-30T06:24:33;149.53;;;9.70;;
5630;SDS011;2837;50.990;7.124;2022-08-30T06:27:00;149.37;;;10.07;;
5630;SDS011;2837;50.990;7.124;2022-08-30T06:29:26;149.83;;;9.97;;
5630;SDS011;2837;50.990;7.124;2022-08-30T06:31:52;150.07;;;9.57;;
5630;SDS011;2837;50.990;7.124;2022-08-30T06:34:20;150.03;;;10.20;;
5630;SDS011;2837;50.990;7.124;2022-08-30T06:36:46;149.60;;;8.80;;
5630;SDS011;2837;50.990;7.124;2022-08-30T06:39:12;149.57;;;9.40;;
5630;SDS011;2837;50.990;7.124;2022-08-30T06:41:38;149.00;;;9.23;;
5630;SDS011;2837;50.990;7.124;2022-08-30T06:44:05;149.87;;;10.20;;
5630;SDS011;2837;50.990;7.124;2022-08-30T06:46:32;150.10;;;9.63;;
5630;SDS011;2837;50.990;7.124;2022-08-30T06:48:59;149.90;;;9.87;;
5630;SDS011;2837;50.990;7.124;2022-08-30T06:51:26;149.90;;;9.73;;
5630;SDS011;2837;50.990;7.124;2022-08-30T06:53:54;149.47;;;9.30;;
5630;SDS011;2837;50.990;7.124;2022-08-30T06:56:21;150.20;;;9.80;;
5630;SDS011;2837;50.990;7.124;2022-08-30T06:58:47;151.40;;;10.27;;
5630;SDS011;2837;50.990;7.124;2022-08-30T07:01:14;151.53;;;9.87;;
5630;SDS011;2837;50.990;7.124;2022-08-30T07:03:41;150.07;;;9.50;;
5630;SDS011;2837;50.990;7.124;2022-08-30T07:06:08;149.73;;;9.40;;
5630;SDS011;2837;50.990;7.124;2022-08-30T07:08:34;148.73;;;8.80;;
5630;SDS011;2837;50.990;7.124;2022-08-30T07:11:00;150.13;;;9.17;;
5630;SDS011;2837;50.990;7.124;2022-08-30T07:13:26;148.67;;;9.40;;
5630;SDS011;2837;50.990;7.124;2022-08-30T07:15:52;150.47;;;10.23;;
5630;SDS011;2837;50.990;7.124;2022-08-30T07:18:18;149.60;;;9.43;;
5630;SDS011;2837;50.990;7.124;2022-08-30T07:21:06;149.37;;;9.67;;
5630;SDS011;2837;50.990;7.124;2022-08-30T07:23:33;150.03;;;8.70;;
5630;SDS011;2837;50.990;7.124;2022-08-30T07:26:01;150.00;;;8.80;;
5630;SDS011;2837;50.990;7.124;2022-08-30T07:28:29;151.07;;;10.20;;
5630;SDS011;2837;50.990;7.124;2022-08-30T07:30:54;149.43;;;9.53;;
5630;SDS011;2837;50.990;7.124;2022-08-30T07:33:20;153.63;;;10.20;;
5630;SDS011;2837;50.990;7.124;2022-08-30T07:35:45;148.90;;;8.63;;
5630;SDS011;2837;50.990;7.124;2022-08-30T07:38:12;150.77;;;9.90;;
5630;SDS011;2837;50.990;7.124;2022-08-30T07:40:38;149.07;;;8.47;;
5630;SDS011;2837;50.990;7.124;2022-08-30T07:43:04;150.87;;;9.80;;
5630;SDS011;2837;50.990;7.124;2022-08-30T07:45:30;150.20;;;9.33;;
5630;SDS011;2837;50.990;7.124;2022-08-30T07:47:56;149.50;;;9.20;;
5630;SDS011;2837;50.990;7.124;2022-08-30T07:50:22;147.83;;;9.27;;
5630;SDS011;2837;50.990;7.124;2022-08-30T07:52:48;150.37;;;9.43;;
5630;SDS011;2837;50.990;7.124;2022-08-30T07:55:14;146.50;;;8.30;;
5630;SDS011;2837;50.990;7.124;2022-08-30T07:57:40;147.07;;;8.43;;
5630;SDS011;2837;50.990;7.124;2022-08-30T08:00:06;148.30;;;9.03;;
5630;SDS011;2837;50.990;7.124;2022-08-30T08:02:32;147.87;;;9.10;;
5630;SDS011;2837;50.990;7.124;2022-08-30T08:04:57;146.17;;;7.90;;
5630;SDS011;2837;50.990;7.124;2022-08-30T08:07:23;147.97;;;9.53;;
5630;SDS011;2837;50.990;7.124;2022-08-30T08:09:49;146.40;;;8.63;;
5630;SDS011;2837;50.990;7.124;2022-08-30T08:12:14;147.97;;;9.07;;
5630;SDS011;2837;50.990;7.124;2022-08-30T08:14:40;148.00;;;9.40;;
5630;SDS011;2837;50.990;7.124;2022-08-30T08:17:06;147.37;;;8.60;;
5630;SDS011;2837;50.990;7.124;2022-08-30T08:19:32;148.40;;;8.80;;
5630;SDS011;2837;50.990;7.124;2022-08-30T08:21:57;147.07;;;8.53;;
5630;SDS011;2837;50.990;7.124;2022-08-30T08:24:27;147.90;;;8.20;;
5630;SDS011;2837;50.990;7.124;2022-08-30T08:26:53;147.80;;;8.17;;
5630;SDS011;2837;50.990;7.124;2022-08-30T08:29:20;147.67;;;9.10;;
5630;SDS011;2837;50.990;7.124;2022-08-30T08:31:46;146.27;;;8.80;;
5630;SDS011;2837;50.990;7.124;2022-08-30T08:34:12;148.60;;;8.47;;
5630;SDS011;2837;50.990;7.124;2022-08-30T08:36:38;145.70;;;8.00;;
5630;SDS011;2837;50.990;7.124;2022-08-30T08:39:05;145.20;;;8.60;;
5630;SDS011;2837;50.990;7.124;2022-08-30T08:44:12;149.40;;;10.30;;
5630;SDS011;2837;50.990;7.124;2022-08-30T08:50:08;150.80;;;9.30;;
5630;SDS011;2837;50.990;7.124;2022-08-30T08:52:55;146.80;;;9.43;;
5630;SDS011;2837;50.990;7.124;2022-08-30T08:55:54;148.60;;;8.10;;
5630;SDS011;2837;50.990;7.124;2022-08-30T08:58:25;147.30;;;8.73;;
5630;SDS011;2837;50.990;7.124;2022-08-30T09:00:58;149.20;;;9.30;;
5630;SDS011;2837;50.990;7.124;2022-08-30T09:03:25;146.57;;;9.17;;
5630;SDS011;2837;50.990;7.124;2022-08-30T09:05:53;146.17;;;8.50;;
5630;SDS011;2837;50.990;7.124;2022-08-30T09:08:20;146.83;;;8.67;;
5630;SDS011;2837;50.990;7.124;2022-08-30T09:10:58;146.77;;;8.97;;
5630;SDS011;2837;50.990;7.124;2022-08-30T09:13:26;146.30;;;8.70;;
5630;SDS011;2837;50.990;7.124;2022-08-30T09:15:52;146.17;;;8.77;;
5630;SDS011;2837;50.990;7.124;2022-08-30T09:18:19;152.07;;;9.23;;
5630;SDS011;2837;50.990;7.124;2022-08-30T09:31:33;149.07;;;9.00;;
5630;SDS011;2837;50.990;7.124;2022-08-30T09:34:19;146.37;;;8.60;;
5630;SDS011;2837;50.990;7.124;2022-08-30T09:36:47;145.03;;;8.27;;
5630;SDS011;2837;50.990;7.124;2022-08-30T09:39:19;148.80;;;8.77;;
5630;SDS011;2837;50.990;7.124;2022-08-30T09:44:54;145.27;;;7.57;;
5630;SDS011;2837;50.990;7.124;2022-08-30T09:47:35;145.80;;;8.23;;
5630;SDS011;2837;50.990;7.124;2022-08-30T09:50:08;145.40;;;8.33;;
5630;SDS011;2837;50.990;7.124;2022-08-30T10:01:06;148.67;;;7.90;;
5630;SDS011;2837;50.990;7.124;2022-08-30T10:03:58;144.77;;;7.90;;
5630;SDS011;2837;50.990;7.124;2022-08-30T10:06:44;149.17;;;8.10;;
5630;SDS011;2837;50.990;7.124;2022-08-30T10:11:48;145.80;;;7.80;;
5630;SDS011;2837;50.990;7.124;2022-08-30T10:14:24;145.47;;;8.30;;
5630;SDS011;2837;50.990;7.124;2022-08-30T10:20:03;146.30;;;7.80;;
5630;SDS011;2837;50.990;7.124;2022-08-30T10:22:47;148.30;;;8.70;;
5630;SDS011;2837;50.990;7.124;2022-08-30T10:25:24;143.77;;;7.60;;
5630;SDS011;2837;50.990;7.124;2022-08-30T10:28:03;144.60;;;7.77;;
5630;SDS011;2837;50.990;7.124;2022-08-30T10:30:39;145.37;;;7.97;;
5630;SDS011;2837;50.990;7.124;2022-08-30T10:33:31;144.97;;;8.77;;
5630;SDS011;2837;50.990;7.124;2022-08-30T10:36:02;144.37;;;8.20;;
5630;SDS011;2837;50.990;7.124;2022-08-30T10:38:35;143.57;;;6.70;;
5630;SDS011;2837;50.990;7.124;2022-08-30T10:46:23;144.27;;;8.40;;
5630;SDS011;2837;50.990;7.124;2022-08-30T10:49:00;146.07;;;8.30;;
5630;SDS011;2837;50.990;7.124;2022-08-30T10:51:32;144.57;;;7.43;;
5630;SDS011;2837;50.990;7.124;2022-08-30T10:54:10;143.97;;;8.17;;
5630;SDS011;2837;50.990;7.124;2022-08-30T10:56:47;148.73;;;7.77;;
5630;SDS011;2837;50.990;7.124;2022-08-30T10:59:15;144.17;;;7.60;;
5630;SDS011;2837;50.990;7.124;2022-08-30T11:07:44;144.00;;;7.30;;
5630;SDS011;2837;50.990;7.124;2022-08-30T11:15:31;145.53;;;8.20;;
5630;SDS011;2837;50.990;7.124;2022-08-30T11:20:37;145.57;;;8.43;;
5630;SDS011;2837;50.990;7.124;2022-08-30T11:25:58;143.07;;;7.50;;
5630;SDS011;2837;50.990;7.124;2022-08-30T11:28:58;144.30;;;8.07;;
5630;SDS011;2837;50.990;7.124;2022-08-30T11:31:34;143.47;;;8.20;;
5630;SDS011;2837;50.990;7.124;2022-08-30T11:34:04;147.60;;;8.37;;
5630;SDS011;2837;50.990;7.124;2022-08-30T11:39:10;144.03;;;8.17;;
5630;SDS011;2837;50.990;7.124;2022-08-30T11:42:09;143.13;;;7.80;;
5630;SDS011;2837;50.990;7.124;2022-08-30T11:44:48;143.77;;;7.90;;
5630;SDS011;2837;50.990;7.124;2022-08-30T11:50:14;144.27;;;8.07;;
5630;SDS011;2837;50.990;7.124;2022-08-30T11:52:55;148.60;;;8.17;;
5630;SDS011;2837;50.990;7.124;2022-08-30T11:55:45;144.47;;;8.50;;
5630;SDS011;2837;50.990;7.124;2022-08-30T12:03:53;144.47;;;7.90;;
5630;SDS011;2837;50.990;7.124;2022-08-30T12:09:07;144.90;;;8.40;;
5630;SDS011;2837;50.990;7.124;2022-08-30T12:14:01;144.70;;;8.53;;
5630;SDS011;2837;50.990;7.124;2022-08-30T12:16:34;147.70;;;8.67;;
5630;SDS011;2837;50.990;7.124;2022-08-30T12:19:25;145.30;;;8.33;;
5630;SDS011;2837;50.990;7.124;2022-08-30T12:21:58;143.53;;;7.80;;
5630;SDS011;2837;50.990;7.124;2022-08-30T12:24:27;144.77;;;8.50;;
5630;SDS011;2837;50.990;7.124;2022-08-30T12:27:00;145.10;;;7.60;;
5630;SDS011;2837;50.990;7.124;2022-08-30T12:29:49;144.83;;;8.23;;
5630;SDS011;2837;50.990;7.124;2022-08-30T12:32:16;145.67;;;8.93;;
5630;SDS011;2837;50.990;7.124;2022-08-30T12:39:45;143.90;;;8.97;;
5630;SDS011;2837;50.990;7.124;2022-08-30T12:44:40;144.87;;;9.13;;
5630;SDS011;2837;50.990;7.124;2022-08-30T12:47:06;144.10;;;7.90;;
5630;SDS011;2837;50.990;7.124;2022-08-30T12:49:33;143.63;;;8.10;;
5630;SDS011;2837;50.990;7.124;2022-08-30T12:52:22;144.17;;;8.43;;
5630;SDS011;2837;50.990;7.124;2022-08-30T12:55:17;143.50;;;8.00;;
5630;SDS011;2837;50.990;7.124;2022-08-30T12:58:05;144.00;;;7.93;;
5630;SDS011;2837;50.990;7.124;2022-08-30T13:00:37;145.07;;;8.40;;
5630;SDS011;2837;50.990;7.124;2022-08-30T13:03:05;144.57;;;8.00;;
5630;SDS011;2837;50.990;7.124;2022-08-30T13:05:56;143.57;;;8.60;;
5630;SDS011;2837;50.990;7.124;2022-08-30T13:11:24;146.17;;;8.90;;
5630;SDS011;2837;50.990;7.124;2022-08-30T13:13:51;143.33;;;8.10;;
5630;SDS011;2837;50.990;7.124;2022-08-30T13:16:26;146.30;;;8.47;;
5630;SDS011;2837;50.990;7.124;2022-08-30T13:21:58;144.27;;;8.30;;
5630;SDS011;2837;50.990;7.124;2022-08-30T13:24:25;143.67;;;8.23;;
5630;SDS011;2837;50.990;7.124;2022-08-30T13:26:57;142.53;;;7.90;;
5630;SDS011;2837;50.990;7.124;2022-08-30T13:29:27;145.80;;;8.97;;
5630;SDS011;2837;50.990;7.124;2022-08-30T13:31:53;143.77;;;8.70;;
5630;SDS011;2837;50.990;7.124;2022-08-30T13:34:19;144.07;;;8.30;;
5630;SDS011;2837;50.990;7.124;2022-08-30T13:36:56;143.47;;;8.20;;
5630;SDS011;2837;50.990;7.124;2022-08-30T13:39:22;143.37;;;8.20;;
5630;SDS011;2837;50.990;7.124;2022-08-30T13:41:49;146.00;;;9.03;;
5630;SDS011;2837;50.990;7.124;2022-08-30T13:44:16;143.00;;;8.10;;
5630;SDS011;2837;50.990;7.124;2022-08-30T13:46:47;142.57;;;7.87;;
5630;SDS011;2837;50.990;7.124;2022-08-30T13:49:20;144.27;;;8.10;;
5630;SDS011;2837;50.990;7.124;2022-08-30T13:51:48;146.07;;;8.13;;
5630;SDS011;2837;50.990;7.124;2022-08-30T13:54:17;143.97;;;8.47;;
5630;SDS011;2837;50.990;7.124;2022-08-30T13:56:50;142.97;;;7.90;;
5630;SDS011;2837;50.990;7.124;2022-08-30T13:59:17;144.80;;;8.17;;
5630;SDS011;2837;50.990;7.124;2022-08-30T14:01:44;144.37;;;8.93;;
5630;SDS011;2837;50.990;7.124;2022-08-30T14:04:10;143.10;;;7.70;;
5630;SDS011;2837;50.990;7.124;2022-08-30T14:06:36;148.93;;;8.07;;
5630;SDS011;2837;50.990;7.124;2022-08-30T14:09:02;144.53;;;8.77;;
5630;SDS011;2837;50.990;7.124;2022-08-30T14:11:30;150.77;;;10.07;;
5630;SDS011;2837;50.990;7.124;2022-08-30T14:13:57;143.17;;;7.93;;
5630;SDS011;2837;50.990;7.124;2022-08-30T14:16:22;143.90;;;8.20;;
5630;SDS011;2837;50.990;7.124;2022-08-30T14:18:48;144.87;;;8.60;;
5630;SDS011;2837;50.990;7.124;2022-08-30T14:21:15;145.70;;;9.10;;
5630;SDS011;2837;50.990;7.124;2022-08-30T14:23:41;144.43;;;8.53;;
5630;SDS011;2837;50.990;7.124;2022-08-30T14:26:12;142.30;;;7.53;;
5630;SDS011;2837;50.990;7.124;2022-08-30T14:28:45;144.37;;;7.83;;
5630;SDS011;2837;50.990;7.124;2022-08-30T14:31:11;144.27;;;7.60;;
5630;SDS011;2837;50.990;7.124;2022-08-30T14:33:37;144.60;;;8.90;;
5630;SDS011;2837;50.990;7.124;2022-08-30T14:36:02;142.97;;;7.87;;
5630;SDS011;2837;50.990;7.124;2022-08-30T14:38:28;141.93;;;7.87;;
5630;SDS011;2837;50.990;7.124;2022-08-30T14:40:54;143.10;;;8.37;;
5630;SDS011;2837;50.990;7.124;2022-08-30T14:43:20;143.40;;;8.20;;
5630;SDS011;2837;50.990;7.124;2022-08-30T14:45:45;143.70;;;8.33;;
5630;SDS011;2837;50.990;7.124;2022-08-30T14:48:11;142.60;;;7.70;;
5630;SDS011;2837;50.990;7.124;2022-08-30T14:50:36;145.37;;;7.97;;
5630;SDS011;2837;50.990;7.124;2022-08-30T14:53:03;144.07;;;7.10;;
5630;SDS011;2837;50.990;7.124;2022-08-30T14:55:30;144.57;;;8.37;;
5630;SDS011;2837;50.990;7.124;2022-08-30T14:57:57;142.87;;;7.70;;
5630;SDS011;2837;50.990;7.124;2022-08-30T15:00:23;143.93;;;7.93;;
5630;SDS011;2837;50.990;7.124;2022-08-30T15:02:49;143.30;;;8.47;;
5630;SDS011;2837;50.990;7.124;2022-08-30T15:05:15;143.37;;;8.37;;
5630;SDS011;2837;50.990;7.124;2022-08-30T15:07:41;143.93;;;9.10;;
5630;SDS011;2837;50.990;7.124;2022-08-30T15:10:07;144.13;;;8.57;;
5630;SDS011;2837;50.990;7.124;2022-08-30T15:12:34;145.20;;;8.60;;
5630;SDS011;2837;50.990;7.124;2022-08-30T15:14:59;143.57;;;8.47;;
5630;SDS011;2837;50.990;7.124;2022-08-30T15:17:25;143.97;;;9.00;;
5630;SDS011;2837;50.990;7.124;2022-08-30T15:19:50;143.00;;;8.23;;
5630;SDS011;2837;50.990;7.124;2022-08-30T15:22:16;144.43;;;8.17;;
5630;SDS011;2837;50.990;7.124;2022-08-30T15:24:42;142.40;;;7.60;;
5630;SDS011;2837;50.990;7.124;2022-08-30T15:27:08;143.37;;;8.73;;
5630;SDS011;2837;50.990;7.124;2022-08-30T15:29:34;142.48;;;8.30;;
5630;SDS011;2837;50.990;7.124;2022-08-30T15:32:00;142.97;;;8.60;;
5630;SDS011;2837;50.990;7.124;2022-08-30T15:34:27;142.27;;;8.10;;
5630;SDS011;2837;50.990;7.124;2022-08-30T15:36:54;143.40;;;8.50;;
5630;SDS011;2837;50.990;7.124;2022-08-30T15:39:19;142.17;;;7.90;;
5630;SDS011;2837;50.990;7.124;2022-08-30T15:41:45;143.83;;;8.30;;
5630;SDS011;2837;50.990;7.124;2022-08-30T15:44:12;142.57;;;8.03;;
5630;SDS011;2837;50.990;7.124;2022-08-30T15:46:40;144.97;;;8.40;;
5630;SDS011;2837;50.990;7.124;2022-08-30T15:49:12;143.73;;;8.07;;
5630;SDS011;2837;50.990;7.124;2022-08-30T15:51:40;142.37;;;7.90;;
5630;SDS011;2837;50.990;7.124;2022-08-30T15:54:10;142.90;;;8.17;;
5630;SDS011;2837;50.990;7.124;2022-08-30T15:56:37;143.73;;;8.73;;
5630;SDS011;2837;50.990;7.124;2022-08-30T15:59:03;143.20;;;9.10;;
5630;SDS011;2837;50.990;7.124;2022-08-30T16:01:28;143.90;;;7.77;;
5630;SDS011;2837;50.990;7.124;2022-08-30T16:03:54;142.37;;;7.97;;
5630;SDS011;2837;50.990;7.124;2022-08-30T16:06:22;143.60;;;8.33;;
5630;SDS011;2837;50.990;7.124;2022-08-30T16:08:49;143.43;;;8.33;;
5630;SDS011;2837;50.990;7.124;2022-08-30T16:11:16;144.80;;;8.83;;
5630;SDS011;2837;50.990;7.124;2022-08-30T16:13:43;142.40;;;8.17;;
5630;SDS011;2837;50.990;7.124;2022-08-30T16:16:09;143.70;;;8.93;;
5630;SDS011;2837;50.990;7.124;2022-08-30T16:18:36;142.33;;;8.50;;
5630;SDS011;2837;50.990;7.124;2022-08-30T16:21:14;142.90;;;8.60;;
5630;SDS011;2837;50.990;7.124;2022-08-30T16:23:47;143.47;;;8.70;;
5630;SDS011;2837;50.990;7.124;2022-08-30T16:26:14;142.73;;;8.18;;
5630;SDS011;2837;50.990;7.124;2022-08-30T16:28:42;144.23;;;8.90;;
5630;SDS011;2837;50.990;7.124;2022-08-30T16:31:08;143.90;;;8.10;;
5630;SDS011;2837;50.990;7.124;2022-08-30T16:33:34;143.50;;;8.40;;
5630;SDS011;2837;50.990;7.124;2022-08-30T16:36:00;143.70;;;8.73;;
5630;SDS011;2837;50.990;7.124;2022-08-30T16:38:27;148.77;;;9.20;;
5630;SDS011;2837;50.990;7.124;2022-08-30T16:40:53;143.77;;;8.20;;
5630;SDS011;2837;50.990;7.124;2022-08-30T16:43:19;142.77;;;8.00;;
5630;SDS011;2837;50.990;7.124;2022-08-30T16:45:45;143.00;;;8.37;;
5630;SDS011;2837;50.990;7.124;2022-08-30T16:48:11;142.67;;;8.50;;
5630;SDS011;2837;50.990;7.124;2022-08-30T16:50:39;143.00;;;8.83;;
5630;SDS011;2837;50.990;7.124;2022-08-30T16:53:06;143.40;;;8.40;;
5630;SDS011;2837;50.990;7.124;2022-08-30T16:55:33;142.20;;;7.83;;
5630;SDS011;2837;50.990;7.124;2022-08-30T16:58:00;142.47;;;7.90;;
5630;SDS011;2837;50.990;7.124;2022-08-30T17:00:28;142.70;;;8.43;;
5630;SDS011;2837;50.990;7.124;2022-08-30T17:02:55;143.37;;;8.73;;
5630;SDS011;2837;50.990;7.124;2022-08-30T17:05:21;141.77;;;7.87;;
5630;SDS011;2837;50.990;7.124;2022-08-30T17:07:48;143.43;;;8.47;;
5630;SDS011;2837;50.990;7.124;2022-08-30T17:10:13;146.67;;;8.70;;
5630;SDS011;2837;50.990;7.124;2022-08-30T17:12:39;146.50;;;7.57;;
5630;SDS011;2837;50.990;7.124;2022-08-30T17:15:05;141.73;;;7.73;;
5630;SDS011;2837;50.990;7.124;2022-08-30T17:17:31;143.13;;;8.07;;
5630;SDS011;2837;50.990;7.124;2022-08-30T17:19:57;146.90;;;7.70;;
5630;SDS011;2837;50.990;7.124;2022-08-30T17:22:23;143.23;;;8.50;;
5630;SDS011;2837;50.990;7.124;2022-08-30T17:24:48;143.03;;;8.30;;
5630;SDS011;2837;50.990;7.124;2022-08-30T17:27:14;144.27;;;8.27;;
5630;SDS011;2837;50.990;7.124;2022-08-30T17:29:39;143.67;;;8.50;;
5630;SDS011;2837;50.990;7.124;2022-08-30T17:32:05;144.07;;;8.80;;
5630;SDS011;2837;50.990;7.124;2022-08-30T17:34:30;146.60;;;8.10;;
5630;SDS011;2837;50.990;7.124;2022-08-30T17:36:56;143.20;;;8.43;;
5630;SDS011;2837;50.990;7.124;2022-08-30T17:39:23;142.97;;;8.50;;
5630;SDS011;2837;50.990;7.124;2022-08-30T17:41:50;142.80;;;8.23;;
5630;SDS011;2837;50.990;7.124;2022-08-30T17:44:20;144.10;;;8.20;;
5630;SDS011;2837;50.990;7.124;2022-08-30T17:46:53;144.10;;;8.57;;
5630;SDS011;2837;50.990;7.124;2022-08-30T17:49:20;143.43;;;8.17;;
5630;SDS011;2837;50.990;7.124;2022-08-30T17:51:47;143.83;;;8.90;;
5630;SDS011;2837;50.990;7.124;2022-08-30T17:54:14;141.90;;;7.40;;
5630;SDS011;2837;50.990;7.124;2022-08-30T17:56:40;144.40;;;8.50;;
5630;SDS011;2837;50.990;7.124;2022-08-30T17:59:06;144.17;;;8.50;;
5630;SDS011;2837;50.990;7.124;2022-08-30T18:01:32;144.10;;;9.07;;
5630;SDS011;2837;50.990;7.124;2022-08-30T18:03:58;150.57;;;10.00;;
5630;SDS011;2837;50.990;7.124;2022-08-30T18:06:24;145.07;;;8.70;;
5630;SDS011;2837;50.990;7.124;2022-08-30T18:08:50;144.07;;;8.97;;
5630;SDS011;2837;50.990;7.124;2022-08-30T18:11:15;144.07;;;8.20;;
5630;SDS011;2837;50.990;7.124;2022-08-30T18:13:41;144.30;;;8.30;;
5630;SDS011;2837;50.990;7.124;2022-08-30T18:16:06;144.30;;;7.93;;
5630;SDS011;2837;50.990;7.124;2022-08-30T18:18:32;143.60;;;8.00;;
5630;SDS011;2837;50.990;7.124;2022-08-30T18:20:58;143.77;;;8.17;;
5630;SDS011;2837;50.990;7.124;2022-08-30T18:23:23;143.03;;;7.33;;
5630;SDS011;2837;50.990;7.124;2022-08-30T18:25:51;144.07;;;8.90;;
5630;SDS011;2837;50.990;7.124;2022-08-30T18:28:20;144.07;;;8.57;;
5630;SDS011;2837;50.990;7.124;2022-08-30T18:30:46;144.53;;;8.40;;
5630;SDS011;2837;50.990;7.124;2022-08-30T18:33:12;143.97;;;8.70;;
5630;SDS011;2837;50.990;7.124;2022-08-30T18:35:37;144.13;;;8.00;;
5630;SDS011;2837;50.990;7.124;2022-08-30T18:38:05;144.50;;;7.80;;
5630;SDS011;2837;50.990;7.124;2022-08-30T18:40:31;143.97;;;8.73;;
5630;SDS011;2837;50.990;7.124;2022-08-30T18:42:56;145.37;;;8.63;;
5630;SDS011;2837;50.990;7.124;2022-08-30T18:45:22;143.73;;;7.87;;
5630;SDS011;2837;50.990;7.124;2022-08-30T18:47:47;145.00;;;7.83;;
5630;SDS011;2837;50.990;7.124;2022-08-30T18:50:13;145.67;;;7.83;;
5630;SDS011;2837;50.990;7.124;2022-08-30T18:52:39;147.20;;;8.50;;
5630;SDS011;2837;50.990;7.124;2022-08-30T18:55:05;144.67;;;8.50;;
5630;SDS011;2837;50.990;7.124;2022-08-30T18:57:31;144.17;;;8.33;;
5630;SDS011;2837;50.990;7.124;2022-08-30T18:59:57;144.10;;;8.00;;
5630;SDS011;2837;50.990;7.124;2022-08-30T19:02:23;146.00;;;9.17;;
5630;SDS011;2837;50.990;7.124;2022-08-30T19:04:48;143.67;;;8.20;;
5630;SDS011;2837;50.990;7.124;2022-08-30T19:07:14;145.00;;;8.47;;
5630;SDS011;2837;50.990;7.124;2022-08-30T19:09:41;144.63;;;8.33;;
5630;SDS011;2837;50.990;7.124;2022-08-30T19:12:07;146.90;;;8.73;;
5630;SDS011;2837;50.990;7.124;2022-08-30T19:14:33;145.77;;;8.20;;
5630;SDS011;2837;50.990;7.124;2022-08-30T19:16:58;144.90;;;7.97;;
5630;SDS011;2837;50.990;7.124;2022-08-30T19:19:24;144.90;;;8.70;;
5630;SDS011;2837;50.990;7.124;2022-08-30T19:21:50;143.97;;;8.77;;
5630;SDS011;2837;50.990;7.124;2022-08-30T19:24:16;143.47;;;8.00;;
5630;SDS011;2837;50.990;7.124;2022-08-30T19:26:42;144.40;;;8.17;;
5630;SDS011;2837;50.990;7.124;2022-08-30T19:29:10;144.67;;;8.40;;
5630;SDS011;2837;50.990;7.124;2022-08-30T19:31:38;145.07;;;9.10;;
5630;SDS011;2837;50.990;7.124;2022-08-30T19:34:04;145.67;;;8.67;;
5630;SDS011;2837;50.990;7.124;2022-08-30T19:36:29;144.70;;;8.70;;
5630;SDS011;2837;50.990;7.124;2022-08-30T19:38:55;144.07;;;8.00;;
5630;SDS011;2837;50.990;7.124;2022-08-30T19:41:21;145.57;;;8.60;;
5630;SDS011;2837;50.990;7.124;2022-08-30T19:43:46;144.57;;;8.60;;
5630;SDS011;2837;50.990;7.124;2022-08-30T19:46:12;144.07;;;8.33;;
5630;SDS011;2837;50.990;7.124;2022-08-30T19:48:38;144.60;;;8.77;;
5630;SDS011;2837;50.990;7.124;2022-08-30T19:51:07;144.60;;;8.80;;
5630;SDS011;2837;50.990;7.124;2022-08-30T19:53:37;144.37;;;8.13;;
5630;SDS011;2837;50.990;7.124;2022-08-30T19:56:03;143.60;;;8.17;;
5630;SDS011;2837;50.990;7.124;2022-08-30T19:58:29;145.47;;;8.80;;
5630;SDS011;2837;50.990;7.124;2022-08-30T20:00:54;144.47;;;8.00;;
5630;SDS011;2837;50.990;7.124;2022-08-30T20:03:20;145.50;;;8.17;;
5630;SDS011;2837;50.990;7.124;2022-08-30T20:05:46;144.20;;;8.30;;
5630;SDS011;2837;50.990;7.124;2022-08-30T20:08:12;144.30;;;8.27;;
5630;SDS011;2837;50.990;7.124;2022-08-30T20:10:38;144.57;;;8.60;;
5630;SDS011;2837;50.990;7.124;2022-08-30T20:13:07;146.27;;;8.20;;
5630;SDS011;2837;50.990;7.124;2022-08-30T20:15:33;144.30;;;8.43;;
5630;SDS011;2837;50.990;7.124;2022-08-30T20:17:58;143.77;;;8.13;;
5630;SDS011;2837;50.990;7.124;2022-08-30T20:20:24;145.07;;;8.00;;
5630;SDS011;2837;50.990;7.124;2022-08-30T20:22:50;144.30;;;8.40;;
5630;SDS011;2837;50.990;7.124;2022-08-30T20:25:16;145.07;;;8.97;;
5630;SDS011;2837;50.990;7.124;2022-08-30T20:27:42;143.60;;;7.77;;
5630;SDS011;2837;50.990;7.124;2022-08-30T20:30:09;146.50;;;8.37;;
5630;SDS011;2837;50.990;7.124;2022-08-30T20:32:35;144.20;;;8.60;;
5630;SDS011;2837;50.990;7.124;2022-08-30T20:35:05;143.80;;;7.67;;
5630;SDS011;2837;50.990;7.124;2022-08-30T20:37:32;144.10;;;8.43;;
5630;SDS011;2837;50.990;7.124;2022-08-30T20:39:59;144.67;;;9.03;;
5630;SDS011;2837;50.990;7.124;2022-08-30T20:42:25;145.17;;;8.83;;
5630;SDS011;2837;50.990;7.124;2022-08-30T20:44:52;144.43;;;8.53;;
5630;SDS011;2837;50.990;7.124;2022-08-30T20:47:18;148.57;;;7.73;;
5630;SDS011;2837;50.990;7.124;2022-08-30T20:49:44;145.03;;;8.57;;
5630;SDS011;2837;50.990;7.124;2022-08-30T20:52:10;144.10;;;8.20;;
5630;SDS011;2837;50.990;7.124;2022-08-30T20:54:36;143.47;;;7.40;;
5630;SDS011;2837;50.990;7.124;2022-08-30T20:57:02;144.40;;;8.00;;
5630;SDS011;2837;50.990;7.124;2022-08-30T20:59:28;145.50;;;8.50;;
